sensor_id;sensor_type;location;lat;lon;timestamp;pressure;altitude;pressure_sealevel;temperature;humidity
19112;BME280;9688;51.906;8.376;2022-12-07T00:00:06;100674.69;;;6.40;100.00
19112;BME280;9688;51.906;8.376;2022-12-07T00:02:52;100673.75;;;6.41;100.00
19112;BME280;9688;51.906;8.376;2022-12-07T00:05:37;100676.47;;;6.38;100.00
19112;BME280;9688;51.906;8.376;2022-12-07T00:08:23;100677.34;;;6.37;100.00
19112;BME280;9688;51.906;8.376;2022-12-07T00:11:10;100675.63;;;6.36;100.00
19112;BME280;9688;51.906;8.376;2022-12-07T00:13:58;100676.47;;;6.38;100.00
19112;BME280;9688;51.906;8.376;2022-12-07T00:16:44;100673.84;;;6.38;100.00
19112;BME280;9688;51.906;8.376;2022-12-07T00:19:30;100663.28;;;6.40;100.00
19112;BME280;9688;51.906;8.376;2022-12-07T00:22:16;100671.16;;;6.40;100.00
19112;BME280;9688;51.906;8.376;2022-12-07T00:25:03;100668.59;;;6.38;100.00
19112;BME280;9688;51.906;8.376;2022-12-07T00:27:48;100665.03;;;6.41;100.00
19112;BME280;9688;51.906;8.376;2022-12-07T00:30:36;100662.34;;;6.44;100.00
19112;BME280;9688;51.906;8.376;2022-12-07T00:33:21;100660.56;;;6.44;100.00
19112;BME280;9688;51.906;8.376;2022-12-07T00:36:08;100657.03;;;6.45;100.00
19112;BME280;9688;51.906;8.376;2022-12-07T00:38:54;100656.16;;;6.46;100.00
19112;BME280;9688;51.906;8.376;2022-12-07T00:41:40;100656.03;;;6.53;100.00
19112;BME280;9688;51.906;8.376;2022-12-07T00:44:26;100662.91;;;6.57;100.00
19112;BME280;9688;51.906;8.376;2022-12-07T00:47:13;100662.88;;;6.60;100.00
19112;BME280;9688;51.906;8.376;2022-12-07T00:49:59;100658.44;;;6.62;100.00
19112;BME280;9688;51.906;8.376;2022-12-07T00:52:46;100653.19;;;6.62;100.00
19112;BME280;9688;51.906;8.376;2022-12-07T00:55:32;100649.78;;;6.58;100.00
19112;BME280;9688;51.906;8.376;2022-12-07T00:58:18;100650.63;;;6.59;100.00
19112;BME280;9688;51.906;8.376;2022-12-07T01:01:05;100642.72;;;6.60;100.00
19112;BME280;9688;51.906;8.376;2022-12-07T01:03:53;100639.19;;;6.61;100.00
19112;BME280;9688;51.906;8.376;2022-12-07T01:06:39;100647.91;;;6.63;100.00
19112;BME280;9688;51.906;8.376;2022-12-07T01:09:24;100642.69;;;6.62;100.00
19112;BME280;9688;51.906;8.376;2022-12-07T01:12:09;100640.94;;;6.62;100.00
19112;BME280;9688;51.906;8.376;2022-12-07T01:14:54;100638.28;;;6.64;100.00
19112;BME280;9688;51.906;8.376;2022-12-07T01:17:40;100632.94;;;6.67;100.00
19112;BME280;9688;51.906;8.376;2022-12-07T01:20:27;100643.50;;;6.65;100.00
19112;BME280;9688;51.906;8.376;2022-12-07T01:23:12;100647.00;;;6.66;100.00
19112;BME280;9688;51.906;8.376;2022-12-07T01:26:00;100652.25;;;6.66;100.00
19112;BME280;9688;51.906;8.376;2022-12-07T01:28:46;100651.31;;;6.68;100.00
19112;BME280;9688;51.906;8.376;2022-12-07T01:31:31;100653.09;;;6.66;100.00
19112;BME280;9688;51.906;8.376;2022-12-07T01:34:17;100653.13;;;6.65;100.00
19112;BME280;9688;51.906;8.376;2022-12-07T01:37:04;100655.75;;;6.65;100.00
19112;BME280;9688;51.906;8.376;2022-12-07T01:39:49;100661.81;;;6.68;100.00
19112;BME280;9688;51.906;8.376;2022-12-07T01:42:35;100658.34;;;6.68;100.00
19112;BME280;9688;51.906;8.376;2022-12-07T01:45:42;100653.09;;;6.66;100.00
19112;BME280;9688;51.906;8.376;2022-12-07T01:48:31;100662.69;;;6.67;100.00
19112;BME280;9688;51.906;8.376;2022-12-07T01:51:18;100658.34;;;6.66;100.00
19112;BME280;9688;51.906;8.376;2022-12-07T01:54:05;100656.59;;;6.67;100.00
19112;BME280;9688;51.906;8.376;2022-12-07T01:56:53;100654.00;;;6.65;100.00
19112;BME280;9688;51.906;8.376;2022-12-07T01:59:41;100657.56;;;6.63;100.00
19112;BME280;9688;51.906;8.376;2022-12-07T02:02:33;100654.81;;;6.67;100.00
19112;BME280;9688;51.906;8.376;2022-12-07T02:05:19;100655.56;;;6.74;100.00
19112;BME280;9688;51.906;8.376;2022-12-07T02:08:05;100650.25;;;6.76;100.00
19112;BME280;9688;51.906;8.376;2022-12-07T02:10:52;100651.16;;;6.76;100.00
19112;BME280;9688;51.906;8.376;2022-12-07T02:13:40;100645.91;;;6.76;100.00
19112;BME280;9688;51.906;8.376;2022-12-07T02:16:33;100649.41;;;6.75;100.00
19112;BME280;9688;51.906;8.376;2022-12-07T02:26:52;100639.88;;;6.71;100.00
19112;BME280;9688;51.906;8.376;2022-12-07T02:29:45;100644.19;;;6.74;100.00
19112;BME280;9688;51.906;8.376;2022-12-07T02:32:40;100648.63;;;6.72;100.00
19112;BME280;9688;51.906;8.376;2022-12-07T02:35:30;100645.94;;;6.73;100.00
19112;BME280;9688;51.906;8.376;2022-12-07T02:38:20;100647.75;;;6.71;100.00
19112;BME280;9688;51.906;8.376;2022-12-07T02:41:12;100644.34;;;6.66;100.00
19112;BME280;9688;51.906;8.376;2022-12-07T02:44:01;100642.56;;;6.68;100.00
19112;BME280;9688;51.906;8.376;2022-12-07T02:46:52;100648.69;;;6.68;100.00
19112;BME280;9688;51.906;8.376;2022-12-07T02:49:39;100630.47;;;6.59;100.00
19112;BME280;9688;51.906;8.376;2022-12-07T02:52:33;100631.47;;;6.55;100.00
19112;BME280;9688;51.906;8.376;2022-12-07T02:55:23;100634.16;;;6.51;100.00
19112;BME280;9688;51.906;8.376;2022-12-07T02:58:23;100633.47;;;6.44;100.00
19112;BME280;9688;51.906;8.376;2022-12-07T03:01:21;100629.13;;;6.41;100.00
19112;BME280;9688;51.906;8.376;2022-12-07T03:04:23;100637.09;;;6.37;100.00
19112;BME280;9688;51.906;8.376;2022-12-07T03:07:20;100627.44;;;6.37;100.00
19112;BME280;9688;51.906;8.376;2022-12-07T03:10:14;100636.22;;;6.36;100.00
19112;BME280;9688;51.906;8.376;2022-12-07T03:13:09;100635.50;;;6.30;100.00
19112;BME280;9688;51.906;8.376;2022-12-07T03:16:03;100634.72;;;6.24;100.00
19112;BME280;9688;51.906;8.376;2022-12-07T03:18:53;100632.25;;;6.18;100.00
19112;BME280;9688;51.906;8.376;2022-12-07T03:21:44;100638.44;;;6.14;100.00
19112;BME280;9688;51.906;8.376;2022-12-07T03:24:37;100629.69;;;6.14;100.00
19112;BME280;9688;51.906;8.376;2022-12-07T03:27:26;100638.44;;;6.14;100.00
19112;BME280;9688;51.906;8.376;2022-12-07T03:30:17;100627.91;;;6.16;100.00
19112;BME280;9688;51.906;8.376;2022-12-07T03:33:08;100631.47;;;6.12;100.00
19112;BME280;9688;51.906;8.376;2022-12-07T03:36:02;100621.03;;;6.09;100.00
19112;BME280;9688;51.906;8.376;2022-12-07T03:38:55;100623.66;;;6.09;100.00
19112;BME280;9688;51.906;8.376;2022-12-07T03:41:44;100621.03;;;6.10;100.00
19112;BME280;9688;51.906;8.376;2022-12-07T03:44:30;100614.94;;;6.07;100.00
19112;BME280;9688;51.906;8.376;2022-12-07T03:47:22;100629.81;;;6.08;99.74
19112;BME280;9688;51.906;8.376;2022-12-07T03:50:21;100628.22;;;6.00;99.84
19112;BME280;9688;51.906;8.376;2022-12-07T03:53:15;100626.50;;;5.99;100.00
19112;BME280;9688;51.906;8.376;2022-12-07T03:56:04;100625.66;;;5.97;99.97
19112;BME280;9688;51.906;8.376;2022-12-07T03:58:52;100616.91;;;5.97;99.85
19112;BME280;9688;51.906;8.376;2022-12-07T04:01:38;100624.06;;;5.87;100.00
19112;BME280;9688;51.906;8.376;2022-12-07T04:04:24;100619.00;;;5.78;100.00
19112;BME280;9688;51.906;8.376;2022-12-07T04:07:10;100619.13;;;5.70;100.00
19112;BME280;9688;51.906;8.376;2022-12-07T04:09:56;100614.84;;;5.66;100.00
19112;BME280;9688;51.906;8.376;2022-12-07T04:12:43;100612.28;;;5.62;100.00
19112;BME280;9688;51.906;8.376;2022-12-07T04:15:30;100627.16;;;5.61;100.00
19112;BME280;9688;51.906;8.376;2022-12-07T04:18:15;100618.44;;;5.61;100.00
19112;BME280;9688;51.906;8.376;2022-12-07T04:21:01;100628.03;;;5.62;100.00
19112;BME280;9688;51.906;8.376;2022-12-07T04:23:46;100633.28;;;5.62;99.50
19112;BME280;9688;51.906;8.376;2022-12-07T04:26:32;100635.84;;;5.65;99.74
19112;BME280;9688;51.906;8.376;2022-12-07T04:29:19;100629.78;;;5.61;99.83
19112;BME280;9688;51.906;8.376;2022-12-07T04:32:05;100632.34;;;5.64;100.00
19112;BME280;9688;51.906;8.376;2022-12-07T04:34:50;100634.19;;;5.61;99.92
19112;BME280;9688;51.906;8.376;2022-12-07T04:37:36;100633.38;;;5.55;99.57
19112;BME280;9688;51.906;8.376;2022-12-07T04:40:22;100636.13;;;5.49;99.71
19112;BME280;9688;51.906;8.376;2022-12-07T04:43:08;100629.19;;;5.45;99.93
19112;BME280;9688;51.906;8.376;2022-12-07T04:45:55;100630.16;;;5.41;100.00
19112;BME280;9688;51.906;8.376;2022-12-07T04:48:40;100630.16;;;5.41;99.98
19112;BME280;9688;51.906;8.376;2022-12-07T04:51:28;100630.19;;;5.38;99.56
19112;BME280;9688;51.906;8.376;2022-12-07T04:54:15;100638.06;;;5.36;100.00
19112;BME280;9688;51.906;8.376;2022-12-07T04:57:00;100626.69;;;5.37;99.92
19112;BME280;9688;51.906;8.376;2022-12-07T04:59:46;100630.19;;;5.38;99.91
19112;BME280;9688;51.906;8.376;2022-12-07T05:02:32;100631.06;;;5.37;100.00
19112;BME280;9688;51.906;8.376;2022-12-07T05:05:18;100631.13;;;5.35;99.69
19112;BME280;9688;51.906;8.376;2022-12-07T05:08:04;100627.63;;;5.35;100.00
19112;BME280;9688;51.906;8.376;2022-12-07T05:10:49;100626.75;;;5.34;100.00
19112;BME280;9688;51.906;8.376;2022-12-07T05:13:36;100618.06;;;5.32;100.00
19112;BME280;9688;51.906;8.376;2022-12-07T05:16:21;100629.47;;;5.30;99.75
19112;BME280;9688;51.906;8.376;2022-12-07T05:19:09;100622.47;;;5.29;99.88
19112;BME280;9688;51.906;8.376;2022-12-07T05:21:54;100619.03;;;5.27;99.83
19112;BME280;9688;51.906;8.376;2022-12-07T05:24:40;100624.34;;;5.22;100.00
19112;BME280;9688;51.906;8.376;2022-12-07T05:27:26;100623.53;;;5.19;100.00
19112;BME280;9688;51.906;8.376;2022-12-07T05:30:13;100626.16;;;5.19;100.00
19112;BME280;9688;51.906;8.376;2022-12-07T05:32:59;100626.16;;;5.19;99.97
19112;BME280;9688;51.906;8.376;2022-12-07T05:35:46;100627.88;;;5.18;100.00
19112;BME280;9688;51.906;8.376;2022-12-07T05:38:32;100623.53;;;5.19;100.00
19112;BME280;9688;51.906;8.376;2022-12-07T05:41:18;100632.25;;;5.18;99.32
19112;BME280;9688;51.906;8.376;2022-12-07T05:44:25;100614.81;;;5.17;99.46
19112;BME280;9688;51.906;8.376;2022-12-07T05:47:10;100621.81;;;5.16;100.00
19112;BME280;9688;51.906;8.376;2022-12-07T05:49:56;100617.44;;;5.17;99.52
19112;BME280;9688;51.906;8.376;2022-12-07T05:52:44;100619.22;;;5.14;99.33
19112;BME280;9688;51.906;8.376;2022-12-07T05:55:29;100614.03;;;5.13;99.37
19112;BME280;9688;51.906;8.376;2022-12-07T05:58:15;100610.50;;;5.12;100.00
19112;BME280;9688;51.906;8.376;2022-12-07T06:01:18;100618.41;;;5.11;99.78
19112;BME280;9688;51.906;8.376;2022-12-07T06:04:04;100615.78;;;5.11;99.97
19112;BME280;9688;51.906;8.376;2022-12-07T06:06:49;100615.78;;;5.11;100.00
19112;BME280;9688;51.906;8.376;2022-12-07T06:09:36;100616.69;;;5.08;100.00
19112;BME280;9688;51.906;8.376;2022-12-07T06:12:21;100620.16;;;5.10;100.00
19112;BME280;9688;51.906;8.376;2022-12-07T06:15:20;100615.00;;;5.06;99.86
19112;BME280;9688;51.906;8.376;2022-12-07T06:18:07;100617.63;;;5.04;99.75
19112;BME280;9688;51.906;8.376;2022-12-07T06:20:52;100620.34;;;5.00;99.74
19112;BME280;9688;51.906;8.376;2022-12-07T06:23:38;100625.69;;;4.94;99.69
19112;BME280;9688;51.906;8.376;2022-12-07T06:26:25;100617.03;;;4.88;99.73
19112;BME280;9688;51.906;8.376;2022-12-07T06:29:11;100611.78;;;4.87;100.00
19112;BME280;9688;51.906;8.376;2022-12-07T06:31:58;100618.00;;;4.81;100.00
19112;BME280;9688;51.906;8.376;2022-12-07T06:34:43;100622.41;;;4.78;100.00
19112;BME280;9688;51.906;8.376;2022-12-07T06:37:30;100620.72;;;4.74;100.00
19112;BME280;9688;51.906;8.376;2022-12-07T06:40:16;100617.22;;;4.75;100.00
19112;BME280;9688;51.906;8.376;2022-12-07T06:43:04;100618.13;;;4.72;100.00
19112;BME280;9688;51.906;8.376;2022-12-07T06:45:53;100612.91;;;4.70;100.00
19112;BME280;9688;51.906;8.376;2022-12-07T06:48:40;100613.84;;;4.65;100.00
19112;BME280;9688;51.906;8.376;2022-12-07T06:51:26;100606.97;;;4.59;100.00
19112;BME280;9688;51.906;8.376;2022-12-07T06:54:13;100615.75;;;4.54;100.00
19112;BME280;9688;51.906;8.376;2022-12-07T06:56:59;100612.38;;;4.47;99.91
19112;BME280;9688;51.906;8.376;2022-12-07T06:59:50;100615.94;;;4.41;100.00
19112;BME280;9688;51.906;8.376;2022-12-07T07:02:39;100616.03;;;4.34;100.00
19112;BME280;9688;51.906;8.376;2022-12-07T07:05:26;100626.59;;;4.28;100.00
19112;BME280;9688;51.906;8.376;2022-12-07T07:08:13;100631.00;;;4.22;100.00
19112;BME280;9688;51.906;8.376;2022-12-07T07:10:58;100631.06;;;4.19;100.00
19112;BME280;9688;51.906;8.376;2022-12-07T07:13:44;100631.09;;;4.16;100.00
19112;BME280;9688;51.906;8.376;2022-12-07T07:16:31;100636.31;;;4.15;100.00
19112;BME280;9688;51.906;8.376;2022-12-07T07:19:17;100638.09;;;4.14;100.00
19112;BME280;9688;51.906;8.376;2022-12-07T07:22:03;100632.88;;;4.11;100.00
19112;BME280;9688;51.906;8.376;2022-12-07T07:24:50;100635.50;;;4.10;100.00
19112;BME280;9688;51.906;8.376;2022-12-07T07:27:40;100639.03;;;4.10;100.00
19112;BME280;9688;51.906;8.376;2022-12-07T07:30:28;100640.75;;;4.11;100.00
19112;BME280;9688;51.906;8.376;2022-12-07T07:33:15;100635.47;;;4.13;100.00
19112;BME280;9688;51.906;8.376;2022-12-07T07:36:01;100638.09;;;4.14;100.00
19112;BME280;9688;51.906;8.376;2022-12-07T07:38:47;100645.94;;;4.14;100.00
19112;BME280;9688;51.906;8.376;2022-12-07T07:41:33;100646.81;;;4.13;100.00
19112;BME280;9688;51.906;8.376;2022-12-07T07:44:19;100653.81;;;4.11;100.00
19112;BME280;9688;51.906;8.376;2022-12-07T07:47:04;100654.72;;;4.09;100.00
19112;BME280;9688;51.906;8.376;2022-12-07T07:49:52;100652.13;;;4.06;100.00
19112;BME280;9688;51.906;8.376;2022-12-07T07:52:42;100654.78;;;4.02;100.00
19112;BME280;9688;51.906;8.376;2022-12-07T07:55:28;100653.06;;;4.00;100.00
19112;BME280;9688;51.906;8.376;2022-12-07T07:58:13;100659.16;;;3.99;100.00
19112;BME280;9688;51.906;8.376;2022-12-07T08:01:03;100660.91;;;3.98;100.00
19112;BME280;9688;51.906;8.376;2022-12-07T08:03:49;100667.00;;;3.99;100.00
19112;BME280;9688;51.906;8.376;2022-12-07T08:06:36;100667.00;;;4.02;100.00
19112;BME280;9688;51.906;8.376;2022-12-07T08:09:21;100665.22;;;4.06;100.00
19112;BME280;9688;51.906;8.376;2022-12-07T08:12:07;100671.28;;;4.09;100.00
19112;BME280;9688;51.906;8.376;2022-12-07T08:14:53;100667.75;;;4.13;100.00
19112;BME280;9688;51.906;8.376;2022-12-07T08:17:38;100666.81;;;4.17;100.00
19112;BME280;9688;51.906;8.376;2022-12-07T08:20:24;100665.06;;;4.18;100.00
19112;BME280;9688;51.906;8.376;2022-12-07T08:23:11;100662.41;;;4.22;100.00
19112;BME280;9688;51.906;8.376;2022-12-07T08:26:00;100667.59;;;4.27;100.00
19112;BME280;9688;51.906;8.376;2022-12-07T08:28:46;100668.44;;;4.28;100.00
19112;BME280;9688;51.906;8.376;2022-12-07T08:31:32;100665.81;;;4.29;100.00
19112;BME280;9688;51.906;8.376;2022-12-07T08:34:17;100663.22;;;4.28;100.00
19112;BME280;9688;51.906;8.376;2022-12-07T08:37:03;100666.69;;;4.27;100.00
19112;BME280;9688;51.906;8.376;2022-12-07T08:39:51;100668.50;;;4.24;100.00
19112;BME280;9688;51.906;8.376;2022-12-07T08:42:42;100668.50;;;4.23;100.00
19112;BME280;9688;51.906;8.376;2022-12-07T08:45:30;100663.22;;;4.26;100.00
19112;BME280;9688;51.906;8.376;2022-12-07T08:48:19;100671.03;;;4.29;100.00
19112;BME280;9688;51.906;8.376;2022-12-07T08:51:08;100669.31;;;4.28;100.00
19112;BME280;9688;51.906;8.376;2022-12-07T08:53:54;100658.00;;;4.28;100.00
19112;BME280;9688;51.906;8.376;2022-12-07T08:56:42;100666.75;;;4.25;100.00
19112;BME280;9688;51.906;8.376;2022-12-07T08:59:29;100670.25;;;4.22;100.00
19112;BME280;9688;51.906;8.376;2022-12-07T09:02:17;100666.69;;;4.27;100.00
19112;BME280;9688;51.906;8.376;2022-12-07T09:05:03;100661.41;;;4.31;100.00
19112;BME280;9688;51.906;8.376;2022-12-07T09:07:51;100665.72;;;4.37;100.00
19112;BME280;9688;51.906;8.376;2022-12-07T09:10:39;100661.25;;;4.46;100.00
19112;BME280;9688;51.906;8.376;2022-12-07T09:13:26;100661.13;;;4.54;100.00
19112;BME280;9688;51.906;8.376;2022-12-07T09:16:14;100666.19;;;4.68;100.00
19112;BME280;9688;51.906;8.376;2022-12-07T09:19:04;100662.59;;;4.77;100.00
19112;BME280;9688;51.906;8.376;2022-12-07T09:21:51;100665.94;;;4.85;100.00
19112;BME280;9688;51.906;8.376;2022-12-07T09:24:37;100661.50;;;4.91;99.75
19112;BME280;9688;51.906;8.376;2022-12-07T09:27:23;100667.56;;;4.95;99.94
19112;BME280;9688;51.906;8.376;2022-12-07T09:30:10;100669.25;;;4.99;99.69
19112;BME280;9688;51.906;8.376;2022-12-07T09:32:57;100667.34;;;5.09;99.46
19112;BME280;9688;51.906;8.376;2022-12-07T09:35:46;100666.25;;;5.24;100.00
19112;BME280;9688;51.906;8.376;2022-12-07T09:38:32;100666.84;;;5.41;99.51
19112;BME280;9688;51.906;8.376;2022-12-07T09:41:21;100665.75;;;5.54;98.77
19112;BME280;9688;51.906;8.376;2022-12-07T09:44:12;100667.22;;;5.69;99.09
19112;BME280;9688;51.906;8.376;2022-12-07T09:47:03;100674.84;;;5.83;99.39
19112;BME280;9688;51.906;8.376;2022-12-07T09:49:49;100665.03;;;5.96;98.71
19112;BME280;9688;51.906;8.376;2022-12-07T09:52:35;100663.03;;;6.09;98.29
19112;BME280;9688;51.906;8.376;2022-12-07T09:55:24;100662.00;;;6.17;98.31
19112;BME280;9688;51.906;8.376;2022-12-07T09:58:18;100664.53;;;6.22;97.87
19112;BME280;9688;51.906;8.376;2022-12-07T10:01:11;100659.22;;;6.25;97.92
19112;BME280;9688;51.906;8.376;2022-12-07T10:04:08;100660.13;;;6.24;97.95
19112;BME280;9688;51.906;8.376;2022-12-07T10:06:55;100659.16;;;6.28;97.54
19112;BME280;9688;51.906;8.376;2022-12-07T10:09:41;100654.81;;;6.27;97.20
19112;BME280;9688;51.906;8.376;2022-12-07T10:12:30;100653.03;;;6.29;97.51
19112;BME280;9688;51.906;8.376;2022-12-07T10:15:45;100654.69;;;6.33;96.91
19112;BME280;9688;51.906;8.376;2022-12-07T10:18:33;100657.22;;;6.38;96.91
19112;BME280;9688;51.906;8.376;2022-12-07T10:21:23;100657.09;;;6.42;96.09
19112;BME280;9688;51.906;8.376;2022-12-07T10:24:14;100650.13;;;6.41;96.46
19112;BME280;9688;51.906;8.376;2022-12-07T10:27:00;100647.50;;;6.41;96.36
19112;BME280;9688;51.906;8.376;2022-12-07T10:29:50;100651.03;;;6.40;96.73
19112;BME280;9688;51.906;8.376;2022-12-07T10:32:38;100655.44;;;6.38;96.01
19112;BME280;9688;51.906;8.376;2022-12-07T10:35:26;100639.53;;;6.46;95.70
19112;BME280;9688;51.906;8.376;2022-12-07T10:38:16;100641.09;;;6.55;95.51
19112;BME280;9688;51.906;8.376;2022-12-07T10:41:06;100643.56;;;6.62;95.48
19112;BME280;9688;51.906;8.376;2022-12-07T10:43:54;100635.34;;;6.78;95.23
19112;BME280;9688;51.906;8.376;2022-12-07T10:46:58;100631.47;;;6.92;94.68
19112;BME280;9688;51.906;8.376;2022-12-07T10:50:12;100618.81;;;7.10;94.44
19112;BME280;9688;51.906;8.376;2022-12-07T10:53:18;100618.28;;;7.31;94.17
19112;BME280;9688;51.906;8.376;2022-12-07T10:59:49;100617.88;;;7.48;93.42
19112;BME280;9688;51.906;8.376;2022-12-07T11:02:57;100609.00;;;7.51;93.25
19112;BME280;9688;51.906;8.376;2022-12-07T11:05:54;100617.03;;;7.46;93.35
19112;BME280;9688;51.906;8.376;2022-12-07T11:08:54;100607.50;;;7.42;93.14
19112;BME280;9688;51.906;8.376;2022-12-07T11:11:50;100617.56;;;7.25;93.22
19112;BME280;9688;51.906;8.376;2022-12-07T11:14:46;100602.03;;;7.15;93.57
19112;BME280;9688;51.906;8.376;2022-12-07T11:17:44;100609.00;;;7.18;93.43
19112;BME280;9688;51.906;8.376;2022-12-07T11:20:40;100607.91;;;7.25;92.40
19112;BME280;9688;51.906;8.376;2022-12-07T11:23:48;100609.78;;;7.20;92.89
19112;BME280;9688;51.906;8.376;2022-12-07T11:26:42;100594.03;;;7.20;93.21
19112;BME280;9688;51.906;8.376;2022-12-07T11:29:53;100594.25;;;7.11;92.77
19112;BME280;9688;51.906;8.376;2022-12-07T11:32:55;100586.44;;;7.08;92.76
19112;BME280;9688;51.906;8.376;2022-12-07T11:35:51;100583.84;;;7.06;93.04
19112;BME280;9688;51.906;8.376;2022-12-07T11:38:43;100575.00;;;7.10;93.18
19112;BME280;9688;51.906;8.376;2022-12-07T11:41:35;100575.63;;;7.20;92.56
19112;BME280;9688;51.906;8.376;2022-12-07T11:44:30;100577.38;;;7.21;92.35
19112;BME280;9688;51.906;8.376;2022-12-07T11:47:25;100580.84;;;7.22;92.68
19112;BME280;9688;51.906;8.376;2022-12-07T11:50:25;100573.03;;;7.19;92.23
19112;BME280;9688;51.906;8.376;2022-12-07T11:53:18;100573.94;;;7.18;92.70
19112;BME280;9688;51.906;8.376;2022-12-07T11:56:12;100566.78;;;7.23;92.68
19112;BME280;9688;51.906;8.376;2022-12-07T11:59:04;100568.38;;;7.30;92.34
19112;BME280;9688;51.906;8.376;2022-12-07T12:01:58;100562.19;;;7.31;92.34
19112;BME280;9688;51.906;8.376;2022-12-07T12:04:53;100559.53;;;7.32;91.97
19112;BME280;9688;51.906;8.376;2022-12-07T12:07:43;100564.91;;;7.28;92.70
19112;BME280;9688;51.906;8.376;2022-12-07T12:10:40;100556.34;;;7.21;92.22
19112;BME280;9688;51.906;8.376;2022-12-07T12:13:47;100549.50;;;7.14;92.66
19112;BME280;9688;51.906;8.376;2022-12-07T12:17:04;100548.75;;;7.09;92.79
19112;BME280;9688;51.906;8.376;2022-12-07T12:20:06;100547.63;;;7.18;92.31
19112;BME280;9688;51.906;8.376;2022-12-07T12:23:07;100549.81;;;7.36;92.60
19112;BME280;9688;51.906;8.376;2022-12-07T12:25:59;100550.25;;;7.52;92.14
19112;BME280;9688;51.906;8.376;2022-12-07T12:28:52;100545.47;;;7.66;91.33
19112;BME280;9688;51.906;8.376;2022-12-07T12:31:40;100544.16;;;7.82;91.32
19112;BME280;9688;51.906;8.376;2022-12-07T12:34:33;100537.88;;;7.87;90.85
19112;BME280;9688;51.906;8.376;2022-12-07T12:37:40;100537.94;;;7.85;91.06
19112;BME280;9688;51.906;8.376;2022-12-07T12:40:43;100539.94;;;7.77;90.33
19112;BME280;9688;51.906;8.376;2022-12-07T12:43:45;100531.28;;;7.72;90.79
19112;BME280;9688;51.906;8.376;2022-12-07T12:46:47;100536.75;;;7.64;90.81
19112;BME280;9688;51.906;8.376;2022-12-07T12:49:38;100528.19;;;7.57;91.08
19112;BME280;9688;51.906;8.376;2022-12-07T12:52:51;100530.94;;;7.53;90.88
19112;BME280;9688;51.906;8.376;2022-12-07T12:56:15;100523.25;;;7.45;91.04
19112;BME280;9688;51.906;8.376;2022-12-07T12:59:26;100524.41;;;7.35;90.92
19112;BME280;9688;51.906;8.376;2022-12-07T13:02:21;100528.84;;;7.33;90.33
19112;BME280;9688;51.906;8.376;2022-12-07T13:05:20;100518.50;;;7.27;91.02
19112;BME280;9688;51.906;8.376;2022-12-07T13:08:15;100516.72;;;7.27;91.17
19112;BME280;9688;51.906;8.376;2022-12-07T13:11:17;100510.56;;;7.28;90.75
19112;BME280;9688;51.906;8.376;2022-12-07T13:18:00;100507.25;;;7.22;90.71
19112;BME280;9688;51.906;8.376;2022-12-07T13:20:50;100513.34;;;7.22;90.81
19112;BME280;9688;51.906;8.376;2022-12-07T13:23:37;100513.47;;;7.18;90.98
19112;BME280;9688;51.906;8.376;2022-12-07T13:26:35;100522.06;;;7.24;90.74
19112;BME280;9688;51.906;8.376;2022-12-07T13:29:21;100511.22;;;7.36;90.45
19112;BME280;9688;51.906;8.376;2022-12-07T13:32:22;100515.44;;;7.42;90.09
19112;BME280;9688;51.906;8.376;2022-12-07T13:35:27;100510.97;;;7.46;90.23
19112;BME280;9688;51.906;8.376;2022-12-07T13:38:22;100511.69;;;7.51;90.38
19112;BME280;9688;51.906;8.376;2022-12-07T13:41:13;100503.75;;;7.54;90.09
19112;BME280;9688;51.906;8.376;2022-12-07T13:44:02;100498.41;;;7.55;89.86
19112;BME280;9688;51.906;8.376;2022-12-07T13:46:53;100500.19;;;7.55;90.40
19112;BME280;9688;51.906;8.376;2022-12-07T13:49:47;100488.94;;;7.50;89.95
19112;BME280;9688;51.906;8.376;2022-12-07T13:52:43;100479.34;;;7.49;90.29
19112;BME280;9688;51.906;8.376;2022-12-07T13:55:30;100482.91;;;7.46;89.97
19112;BME280;9688;51.906;8.376;2022-12-07T13:58:17;100488.19;;;7.45;90.04
19112;BME280;9688;51.906;8.376;2022-12-07T14:01:02;100480.31;;;7.45;89.92
19112;BME280;9688;51.906;8.376;2022-12-07T14:03:48;100477.84;;;7.38;90.07
19112;BME280;9688;51.906;8.376;2022-12-07T14:06:34;100483.19;;;7.35;89.88
19112;BME280;9688;51.906;8.376;2022-12-07T14:09:21;100482.28;;;7.36;90.07
19112;BME280;9688;51.906;8.376;2022-12-07T14:12:12;100480.66;;;7.32;89.43
19112;BME280;9688;51.906;8.376;2022-12-07T14:15:00;100483.47;;;7.26;89.80
19112;BME280;9688;51.906;8.376;2022-12-07T14:17:51;100478.34;;;7.20;90.07
19112;BME280;9688;51.906;8.376;2022-12-07T14:20:40;100483.59;;;7.20;90.11
19112;BME280;9688;51.906;8.376;2022-12-07T14:23:30;100484.59;;;7.16;90.05
19112;BME280;9688;51.906;8.376;2022-12-07T14:26:19;100482.16;;;7.08;90.47
19112;BME280;9688;51.906;8.376;2022-12-07T14:29:28;100474.34;;;7.07;90.53
19112;BME280;9688;51.906;8.376;2022-12-07T14:32:23;100477.94;;;7.03;90.30
19112;BME280;9688;51.906;8.376;2022-12-07T14:35:13;100468.44;;;6.99;89.95
19112;BME280;9688;51.906;8.376;2022-12-07T14:37:59;100472.00;;;6.96;90.46
19112;BME280;9688;51.906;8.376;2022-12-07T14:40:45;100471.25;;;6.91;90.35
19112;BME280;9688;51.906;8.376;2022-12-07T14:43:31;100460.84;;;6.86;90.63
19112;BME280;9688;51.906;8.376;2022-12-07T14:46:19;100462.84;;;6.77;90.06
19112;BME280;9688;51.906;8.376;2022-12-07T14:49:05;100463.91;;;6.69;90.19
19112;BME280;9688;51.906;8.376;2022-12-07T14:51:50;100460.69;;;6.57;90.63
19112;BME280;9688;51.906;8.376;2022-12-07T14:54:36;100457.47;;;6.45;90.71
19112;BME280;9688;51.906;8.376;2022-12-07T14:57:23;100464.66;;;6.37;90.69
19112;BME280;9688;51.906;8.376;2022-12-07T15:00:14;100465.75;;;6.29;91.08
19112;BME280;9688;51.906;8.376;2022-12-07T15:03:02;100469.47;;;6.20;91.00
19112;BME280;9688;51.906;8.376;2022-12-07T15:05:48;100466.13;;;6.13;91.24
19112;BME280;9688;51.906;8.376;2022-12-07T15:08:34;100460.13;;;6.07;91.72
19112;BME280;9688;51.906;8.376;2022-12-07T15:11:20;100466.31;;;6.04;91.36
19112;BME280;9688;51.906;8.376;2022-12-07T15:14:05;100467.28;;;6.00;91.39
19112;BME280;9688;51.906;8.376;2022-12-07T15:16:55;100469.06;;;5.99;92.04
19112;BME280;9688;51.906;8.376;2022-12-07T15:19:43;100464.75;;;5.97;92.17